Weather at Vidin Smurdan Airfield

Public forecast

Using degrees Celsius for public forecast. Weather courtesy of forecast.io.

Closest aviation weather report (METAR) to Vidin Smurdan Airfield

Report is more than 6 hours old.

Closest report is Craiova Airport, 49.5 nm (91.6 km) ENE. Retrieved 2022/09/17 18:30 UTC (11 days ago):

LRCV 171830Z 08005KT CAVOK 17/15 Q1000

Closest aviation forecast (TAF) to Vidin Smurdan Airfield

Forecast is more than 12 hours old.

Closest forecast is Craiova Airport, 49.5 nm (91.6 km) ENE. Retrieved 2014/07/19 18:48 UTC (8 years ago):

TAF LRCV 191800Z 1918/2024 CNL